Crown Topaz — 3FAS9 — position and weather

sailwx.info

Track history (hours):
 
Tides and Currents Weather Stations Pressure Air Temp Water Temp Dewpoint Dewpoint Depression Visibility Wind Speed Wind Dir Waves Ship Positions

Crown Topaz

Last reported at 2015-Jul-04 16:33 UTC. Time now 2015-Jul-04 17:00 UTC.
Position N 50°49' W 001°06'.

Length 152 m; draft 7.6 m.

Type: Cargo ship. MMSI: 357144000.

Date/timePositionNaut miles runAvg speedWind from/ knotsBaromVisibWave heightAir tempDewpointWater temp
2015-Jul-04 16:33N 50°49' W 001°06'0 0.0
2015-Jul-04 15:33N 50°49' W 001°06'0 0.0
2015-Jul-04 14:33N 50°49' W 001°06'0 0.0
2015-Jul-04 13:33N 50°49' W 001°06'0 0.0
2015-Jul-04 12:33N 50°49' W 001°06'6 5.5
2015-Jul-04 11:33N 50°44' W 001°02'9 8.6
2015-Jul-04 10:33N 50°35' W 000°59'5 5.1
2015-Jul-04 09:33N 50°30' W 001°01'7 7.5
2015-Jul-04 08:33N 50°29' W 001°13'2520.5
2015-Jul-04 07:20N 50°22' W 001°51'3419.3
2015-Jul-04 05:34N 50°12' W 002°42'1818.2
2015-Jul-04 04:33N 50°07' W 003°10'1717.5
2015-Jul-04 03:34N 50°02' W 003°35'2217.5
2015-Jul-04 02:17N 49°57' W 004°09'1717.8
2015-Jul-04 01:19N 49°50' W 004°34'1317.5
2015-Jul-04 00:33N 49°46' W 004°53'  
2015-Jul-01 09:29N 39°59' W 028°24'1718.4
2015-Jul-01 08:33N 39°50' W 028°43'1818.2
2015-Jul-01 07:33N 39°40' W 029°03'1818.3
2015-Jul-01 06:33N 39°31' W 029°24'1818.4
2015-Jul-01 05:33N 39°21' W 029°44'1918.7
2015-Jul-01 04:33N 39°12' W 030°05'1918.7
2015-Jul-01 03:32N 39°02' W 030°26'1919.0
2015-Jul-01 02:33N 38°53' W 030°47'  
Track history (hours):
 
Tides and Currents Weather Stations Pressure Air Temp Water Temp Dewpoint Dewpoint Depression Visibility Wind Speed Wind Dir Waves Ship Positions

Crown Topaz

Last reported at 2015-Jul-04 16:33 UTC. Time now 2015-Jul-04 17:00 UTC.
Position N 50°49' W 001°06'.

Length 152 m; draft 7.6 m.

Type: Cargo ship. MMSI: 357144000.

Date/timePositionNaut miles runAvg speedWind from/ knotsBaromVisibWave heightAir tempDewpointWater temp
2015-Jul-04 16:33N 50°49' W 001°06'0 0.0
2015-Jul-04 15:33N 50°49' W 001°06'0 0.0
2015-Jul-04 14:33N 50°49' W 001°06'0 0.0
2015-Jul-04 13:33N 50°49' W 001°06'0 0.0
2015-Jul-04 12:33N 50°49' W 001°06'6 5.5
2015-Jul-04 11:33N 50°44' W 001°02'9 8.6
2015-Jul-04 10:33N 50°35' W 000°59'5 5.1
2015-Jul-04 09:33N 50°30' W 001°01'7 7.5
2015-Jul-04 08:33N 50°29' W 001°13'2520.5
2015-Jul-04 07:20N 50°22' W 001°51'3419.3
2015-Jul-04 05:34N 50°12' W 002°42'1818.2
2015-Jul-04 04:33N 50°07' W 003°10'1717.5
2015-Jul-04 03:34N 50°02' W 003°35'2217.5
2015-Jul-04 02:17N 49°57' W 004°09'1717.8
2015-Jul-04 01:19N 49°50' W 004°34'1317.5
2015-Jul-04 00:33N 49°46' W 004°53'  
2015-Jul-01 09:29N 39°59' W 028°24'1718.4
2015-Jul-01 08:33N 39°50' W 028°43'1818.2
2015-Jul-01 07:33N 39°40' W 029°03'1818.3
2015-Jul-01 06:33N 39°31' W 029°24'1818.4
2015-Jul-01 05:33N 39°21' W 029°44'1918.7
2015-Jul-01 04:33N 39°12' W 030°05'1918.7
2015-Jul-01 03:32N 39°02' W 030°26'1919.0
2015-Jul-01 02:33N 38°53' W 030°47'  

Dump ship's entire track history